sensor_id;sensor_type;location;lat;lon;timestamp;temperature;humidity
37530;DHT22;23374;52.758;6.872;2024-02-23T00:01:06;5.80;1.00
37530;DHT22;23374;52.758;6.872;2024-02-23T00:03:27;5.70;1.00
37530;DHT22;23374;52.758;6.872;2024-02-23T00:05:48;5.70;99.90
37530;DHT22;23374;52.758;6.872;2024-02-23T00:08:10;5.70;99.90
37530;DHT22;23374;52.758;6.872;2024-02-23T00:10:31;5.60;99.90
37530;DHT22;23374;52.758;6.872;2024-02-23T00:12:53;5.60;1.00
37530;DHT22;23374;52.758;6.872;2024-02-23T00:15:13;5.60;1.00
37530;DHT22;23374;52.758;6.872;2024-02-23T00:17:34;5.60;1.00
37530;DHT22;23374;52.758;6.872;2024-02-23T00:19:54;5.60;1.00
37530;DHT22;23374;52.758;6.872;2024-02-23T00:22:14;5.50;1.00
37530;DHT22;23374;52.758;6.872;2024-02-23T00:24:35;5.40;1.00
37530;DHT22;23374;52.758;6.872;2024-02-23T00:26:56;5.40;1.00
37530;DHT22;23374;52.758;6.872;2024-02-23T00:29:18;5.40;1.00
37530;DHT22;23374;52.758;6.872;2024-02-23T00:31:40;5.40;1.00
37530;DHT22;23374;52.758;6.872;2024-02-23T00:34:01;5.30;1.00
37530;DHT22;23374;52.758;6.872;2024-02-23T00:36:21;5.30;1.00
37530;DHT22;23374;52.758;6.872;2024-02-23T00:38:42;5.20;51.70
37530;DHT22;23374;52.758;6.872;2024-02-23T00:41:03;5.20;99.90
37530;DHT22;23374;52.758;6.872;2024-02-23T00:43:24;5.20;99.90
37530;DHT22;23374;52.758;6.872;2024-02-23T00:45:44;5.00;1.00
37530;DHT22;23374;52.758;6.872;2024-02-23T00:48:06;4.90;1.00
37530;DHT22;23374;52.758;6.872;2024-02-23T00:50:27;4.90;99.90
37530;DHT22;23374;52.758;6.872;2024-02-23T00:52:47;4.80;99.90
37530;DHT22;23374;52.758;6.872;2024-02-23T00:55:08;4.80;99.90
37530;DHT22;23374;52.758;6.872;2024-02-23T00:57:29;4.70;1.00
37530;DHT22;23374;52.758;6.872;2024-02-23T00:59:50;4.60;99.90
37530;DHT22;23374;52.758;6.872;2024-02-23T01:02:11;4.60;1.00
37530;DHT22;23374;52.758;6.872;2024-02-23T01:04:31;4.60;1.00
37530;DHT22;23374;52.758;6.872;2024-02-23T01:06:52;4.60;1.00
37530;DHT22;23374;52.758;6.872;2024-02-23T01:09:12;4.60;1.00
37530;DHT22;23374;52.758;6.872;2024-02-23T01:11:33;4.60;1.00
37530;DHT22;23374;52.758;6.872;2024-02-23T01:13:53;4.60;1.00
37530;DHT22;23374;52.758;6.872;2024-02-23T01:16:14;4.60;1.00
37530;DHT22;23374;52.758;6.872;2024-02-23T01:18:35;4.50;1.00
37530;DHT22;23374;52.758;6.872;2024-02-23T01:20:56;4.60;1.00
37530;DHT22;23374;52.758;6.872;2024-02-23T01:23:17;4.60;1.00
37530;DHT22;23374;52.758;6.872;2024-02-23T01:25:38;4.60;1.00
37530;DHT22;23374;52.758;6.872;2024-02-23T01:27:59;4.60;1.00
37530;DHT22;23374;52.758;6.872;2024-02-23T01:30:19;4.60;1.00
37530;DHT22;23374;52.758;6.872;2024-02-23T01:32:40;4.60;1.00
37530;DHT22;23374;52.758;6.872;2024-02-23T01:35:01;4.70;1.00
37530;DHT22;23374;52.758;6.872;2024-02-23T01:37:21;4.70;1.00
37530;DHT22;23374;52.758;6.872;2024-02-23T01:39:41;4.70;1.00
37530;DHT22;23374;52.758;6.872;2024-02-23T01:42:02;4.70;1.00
37530;DHT22;23374;52.758;6.872;2024-02-23T01:44:22;4.80;1.00
37530;DHT22;23374;52.758;6.872;2024-02-23T01:46:43;4.80;1.00
37530;DHT22;23374;52.758;6.872;2024-02-23T01:49:05;4.80;99.90
37530;DHT22;23374;52.758;6.872;2024-02-23T01:51:27;4.80;99.90
37530;DHT22;23374;52.758;6.872;2024-02-23T01:53:48;4.80;99.90
37530;DHT22;23374;52.758;6.872;2024-02-23T01:56:08;4.80;99.90
37530;DHT22;23374;52.758;6.872;2024-02-23T01:58:30;4.90;99.90
37530;DHT22;23374;52.758;6.872;2024-02-23T02:00:51;4.90;99.90
37530;DHT22;23374;52.758;6.872;2024-02-23T02:03:11;5.00;99.90
37530;DHT22;23374;52.758;6.872;2024-02-23T02:05:31;5.00;99.90
37530;DHT22;23374;52.758;6.872;2024-02-23T02:07:53;5.10;99.90
37530;DHT22;23374;52.758;6.872;2024-02-23T02:10:20;5.10;99.90
37530;DHT22;23374;52.758;6.872;2024-02-23T02:12:40;5.10;99.90
37530;DHT22;23374;52.758;6.872;2024-02-23T02:15:02;5.10;99.90
37530;DHT22;23374;52.758;6.872;2024-02-23T02:17:22;5.20;99.90
37530;DHT22;23374;52.758;6.872;2024-02-23T02:19:48;5.20;99.90
37530;DHT22;23374;52.758;6.872;2024-02-23T02:22:09;5.20;99.90
37530;DHT22;23374;52.758;6.872;2024-02-23T02:24:29;5.20;99.90
37530;DHT22;23374;52.758;6.872;2024-02-23T02:26:49;5.20;99.90
37530;DHT22;23374;52.758;6.872;2024-02-23T02:29:10;5.30;99.90
37530;DHT22;23374;52.758;6.872;2024-02-23T02:31:31;5.30;99.90
37530;DHT22;23374;52.758;6.872;2024-02-23T02:33:57;5.30;4.30
37530;DHT22;23374;52.758;6.872;2024-02-23T02:36:17;5.30;1.00
37530;DHT22;23374;52.758;6.872;2024-02-23T02:38:37;5.30;1.00
37530;DHT22;23374;52.758;6.872;2024-02-23T02:40:58;5.30;1.00
37530;DHT22;23374;52.758;6.872;2024-02-23T02:43:20;5.30;1.00
37530;DHT22;23374;52.758;6.872;2024-02-23T02:45:40;5.30;1.00
37530;DHT22;23374;52.758;6.872;2024-02-23T02:48:01;5.40;1.00
37530;DHT22;23374;52.758;6.872;2024-02-23T02:50:24;5.30;1.00
37530;DHT22;23374;52.758;6.872;2024-02-23T02:52:45;5.30;1.00
37530;DHT22;23374;52.758;6.872;2024-02-23T02:55:07;5.40;1.00
37530;DHT22;23374;52.758;6.872;2024-02-23T02:57:28;5.40;1.00
37530;DHT22;23374;52.758;6.872;2024-02-23T02:59:49;5.40;1.00
37530;DHT22;23374;52.758;6.872;2024-02-23T03:02:10;5.40;1.00
37530;DHT22;23374;52.758;6.872;2024-02-23T03:04:30;5.40;99.90
37530;DHT22;23374;52.758;6.872;2024-02-23T03:06:50;5.40;99.90
37530;DHT22;23374;52.758;6.872;2024-02-23T03:09:10;5.30;1.00
37530;DHT22;23374;52.758;6.872;2024-02-23T03:11:31;5.20;1.00
37530;DHT22;23374;52.758;6.872;2024-02-23T03:13:51;5.20;1.00
37530;DHT22;23374;52.758;6.872;2024-02-23T03:16:18;5.20;1.00
37530;DHT22;23374;52.758;6.872;2024-02-23T03:18:38;5.10;1.00
37530;DHT22;23374;52.758;6.872;2024-02-23T03:20:59;5.10;99.90
37530;DHT22;23374;52.758;6.872;2024-02-23T03:23:19;5.10;99.90
37530;DHT22;23374;52.758;6.872;2024-02-23T03:25:39;5.10;99.90
37530;DHT22;23374;52.758;6.872;2024-02-23T03:27:59;5.10;99.90
37530;DHT22;23374;52.758;6.872;2024-02-23T03:30:20;5.10;99.90
37530;DHT22;23374;52.758;6.872;2024-02-23T03:32:41;5.10;31.90
37530;DHT22;23374;52.758;6.872;2024-02-23T03:35:04;5.10;1.00
37530;DHT22;23374;52.758;6.872;2024-02-23T03:37:25;5.10;1.00
37530;DHT22;23374;52.758;6.872;2024-02-23T03:39:45;5.10;1.00
37530;DHT22;23374;52.758;6.872;2024-02-23T03:42:05;5.10;1.00
37530;DHT22;23374;52.758;6.872;2024-02-23T03:44:26;5.10;1.00
37530;DHT22;23374;52.758;6.872;2024-02-23T03:46:46;5.10;1.00
37530;DHT22;23374;52.758;6.872;2024-02-23T03:49:06;5.10;1.00
37530;DHT22;23374;52.758;6.872;2024-02-23T03:51:26;5.20;1.00
37530;DHT22;23374;52.758;6.872;2024-02-23T03:53:47;5.20;99.90
37530;DHT22;23374;52.758;6.872;2024-02-23T03:56:07;5.10;99.90
37530;DHT22;23374;52.758;6.872;2024-02-23T03:58:28;5.20;99.90
37530;DHT22;23374;52.758;6.872;2024-02-23T04:00:49;5.10;99.90
37530;DHT22;23374;52.758;6.872;2024-02-23T04:03:09;5.10;99.90
37530;DHT22;23374;52.758;6.872;2024-02-23T04:05:30;5.10;1.00
37530;DHT22;23374;52.758;6.872;2024-02-23T04:07:51;5.10;99.90
37530;DHT22;23374;52.758;6.872;2024-02-23T04:10:11;5.20;1.00
37530;DHT22;23374;52.758;6.872;2024-02-23T04:12:36;5.20;1.00
37530;DHT22;23374;52.758;6.872;2024-02-23T04:14:56;5.10;99.90
37530;DHT22;23374;52.758;6.872;2024-02-23T04:17:17;5.10;99.90
37530;DHT22;23374;52.758;6.872;2024-02-23T04:19:37;5.10;99.90
37530;DHT22;23374;52.758;6.872;2024-02-23T04:21:58;5.10;99.90
37530;DHT22;23374;52.758;6.872;2024-02-23T04:24:19;5.10;99.90
37530;DHT22;23374;52.758;6.872;2024-02-23T04:26:39;5.10;1.00
37530;DHT22;23374;52.758;6.872;2024-02-23T04:28:59;5.10;1.00
37530;DHT22;23374;52.758;6.872;2024-02-23T04:31:19;5.10;1.00
37530;DHT22;23374;52.758;6.872;2024-02-23T04:33:39;5.00;1.00
37530;DHT22;23374;52.758;6.872;2024-02-23T04:36:00;5.00;1.00
37530;DHT22;23374;52.758;6.872;2024-02-23T04:38:21;4.90;1.00
37530;DHT22;23374;52.758;6.872;2024-02-23T04:40:41;5.00;1.00
37530;DHT22;23374;52.758;6.872;2024-02-23T04:43:02;5.00;1.00
37530;DHT22;23374;52.758;6.872;2024-02-23T04:45:23;4.90;1.00
37530;DHT22;23374;52.758;6.872;2024-02-23T04:47:43;4.90;55.80
37530;DHT22;23374;52.758;6.872;2024-02-23T04:50:07;5.00;99.90
37530;DHT22;23374;52.758;6.872;2024-02-23T04:52:29;5.00;99.90
37530;DHT22;23374;52.758;6.872;2024-02-23T04:54:49;5.00;99.90
37530;DHT22;23374;52.758;6.872;2024-02-23T04:57:10;5.00;99.90
37530;DHT22;23374;52.758;6.872;2024-02-23T04:59:30;5.10;99.90
37530;DHT22;23374;52.758;6.872;2024-02-23T05:01:52;5.10;99.90
37530;DHT22;23374;52.758;6.872;2024-02-23T05:04:12;5.10;99.90
37530;DHT22;23374;52.758;6.872;2024-02-23T05:06:33;5.20;99.90
37530;DHT22;23374;52.758;6.872;2024-02-23T05:08:53;5.20;99.90
37530;DHT22;23374;52.758;6.872;2024-02-23T05:11:15;5.30;99.90
37530;DHT22;23374;52.758;6.872;2024-02-23T05:13:36;5.30;99.90
37530;DHT22;23374;52.758;6.872;2024-02-23T05:15:59;5.30;99.90
37530;DHT22;23374;52.758;6.872;2024-02-23T05:18:19;5.30;79.10
37530;DHT22;23374;52.758;6.872;2024-02-23T05:20:40;5.30;1.00
37530;DHT22;23374;52.758;6.872;2024-02-23T05:23:00;5.30;1.00
37530;DHT22;23374;52.758;6.872;2024-02-23T05:25:21;5.30;1.00
37530;DHT22;23374;52.758;6.872;2024-02-23T05:27:41;5.30;1.00
37530;DHT22;23374;52.758;6.872;2024-02-23T05:30:02;5.30;1.00
37530;DHT22;23374;52.758;6.872;2024-02-23T05:32:23;5.30;1.00
37530;DHT22;23374;52.758;6.872;2024-02-23T05:34:43;5.30;1.00
37530;DHT22;23374;52.758;6.872;2024-02-23T05:37:05;5.40;1.00
37530;DHT22;23374;52.758;6.872;2024-02-23T05:39:25;5.40;1.00
37530;DHT22;23374;52.758;6.872;2024-02-23T05:41:45;5.40;1.00
37530;DHT22;23374;52.758;6.872;2024-02-23T05:44:05;5.40;1.00
37530;DHT22;23374;52.758;6.872;2024-02-23T05:46:26;5.40;1.00
37530;DHT22;23374;52.758;6.872;2024-02-23T05:48:46;5.40;1.00
37530;DHT22;23374;52.758;6.872;2024-02-23T05:51:06;5.40;1.00
37530;DHT22;23374;52.758;6.872;2024-02-23T05:53:27;5.40;1.00
37530;DHT22;23374;52.758;6.872;2024-02-23T05:55:51;5.30;99.90
37530;DHT22;23374;52.758;6.872;2024-02-23T05:58:11;5.30;1.00
37530;DHT22;23374;52.758;6.872;2024-02-23T06:00:33;5.30;1.00
37530;DHT22;23374;52.758;6.872;2024-02-23T06:02:54;5.30;1.00
37530;DHT22;23374;52.758;6.872;2024-02-23T06:05:14;5.30;1.00
37530;DHT22;23374;52.758;6.872;2024-02-23T06:07:35;5.30;1.00
37530;DHT22;23374;52.758;6.872;2024-02-23T06:09:56;5.30;1.00
37530;DHT22;23374;52.758;6.872;2024-02-23T06:12:17;5.30;1.00
37530;DHT22;23374;52.758;6.872;2024-02-23T06:14:37;5.30;1.00
37530;DHT22;23374;52.758;6.872;2024-02-23T06:16:57;5.30;1.00
37530;DHT22;23374;52.758;6.872;2024-02-23T06:19:17;5.30;99.90
37530;DHT22;23374;52.758;6.872;2024-02-23T06:21:38;5.40;1.00
37530;DHT22;23374;52.758;6.872;2024-02-23T06:23:58;5.40;99.90
37530;DHT22;23374;52.758;6.872;2024-02-23T06:26:19;5.40;1.00
37530;DHT22;23374;52.758;6.872;2024-02-23T06:28:40;5.40;99.90
37530;DHT22;23374;52.758;6.872;2024-02-23T06:31:01;5.40;99.90
37530;DHT22;23374;52.758;6.872;2024-02-23T06:33:23;5.40;99.90
37530;DHT22;23374;52.758;6.872;2024-02-23T06:35:44;5.40;99.90
37530;DHT22;23374;52.758;6.872;2024-02-23T06:38:05;5.40;99.90
37530;DHT22;23374;52.758;6.872;2024-02-23T06:40:26;5.40;99.90
37530;DHT22;23374;52.758;6.872;2024-02-23T06:42:47;5.40;99.90
37530;DHT22;23374;52.758;6.872;2024-02-23T06:45:08;5.40;99.90
37530;DHT22;23374;52.758;6.872;2024-02-23T06:47:29;5.40;99.90
37530;DHT22;23374;52.758;6.872;2024-02-23T06:49:49;5.40;99.90
37530;DHT22;23374;52.758;6.872;2024-02-23T06:52:12;5.40;99.90
37530;DHT22;23374;52.758;6.872;2024-02-23T06:54:32;5.50;99.90
37530;DHT22;23374;52.758;6.872;2024-02-23T06:56:52;5.50;99.90
37530;DHT22;23374;52.758;6.872;2024-02-23T06:59:13;5.50;99.90
37530;DHT22;23374;52.758;6.872;2024-02-23T07:01:33;5.60;99.90
37530;DHT22;23374;52.758;6.872;2024-02-23T07:03:55;5.60;99.90
37530;DHT22;23374;52.758;6.872;2024-02-23T07:06:15;5.60;99.90
37530;DHT22;23374;52.758;6.872;2024-02-23T07:08:38;5.60;99.90
37530;DHT22;23374;52.758;6.872;2024-02-23T07:10:59;5.60;99.90
37530;DHT22;23374;52.758;6.872;2024-02-23T07:13:19;5.60;99.90
37530;DHT22;23374;52.758;6.872;2024-02-23T07:15:40;5.60;99.90
37530;DHT22;23374;52.758;6.872;2024-02-23T07:18:01;5.70;99.90
37530;DHT22;23374;52.758;6.872;2024-02-23T07:20:22;5.70;99.90
37530;DHT22;23374;52.758;6.872;2024-02-23T07:22:46;5.70;99.90
37530;DHT22;23374;52.758;6.872;2024-02-23T07:25:07;5.70;99.90
37530;DHT22;23374;52.758;6.872;2024-02-23T07:27:27;5.70;99.90
37530;DHT22;23374;52.758;6.872;2024-02-23T07:29:47;5.70;61.20
37530;DHT22;23374;52.758;6.872;2024-02-23T07:32:08;5.70;99.90
37530;DHT22;23374;52.758;6.872;2024-02-23T07:34:28;5.70;99.90
37530;DHT22;23374;52.758;6.872;2024-02-23T07:36:52;5.70;99.90
37530;DHT22;23374;52.758;6.872;2024-02-23T07:39:12;5.80;99.90
37530;DHT22;23374;52.758;6.872;2024-02-23T07:41:32;5.80;5.90
37530;DHT22;23374;52.758;6.872;2024-02-23T07:43:52;5.80;1.00
37530;DHT22;23374;52.758;6.872;2024-02-23T07:46:13;5.80;12.20
37530;DHT22;23374;52.758;6.872;2024-02-23T07:48:33;5.80;44.60
37530;DHT22;23374;52.758;6.872;2024-02-23T07:50:54;5.80;1.00
37530;DHT22;23374;52.758;6.872;2024-02-23T07:53:15;5.80;1.00
37530;DHT22;23374;52.758;6.872;2024-02-23T07:55:35;5.80;1.00
37530;DHT22;23374;52.758;6.872;2024-02-23T07:57:55;5.90;1.00
37530;DHT22;23374;52.758;6.872;2024-02-23T08:00:21;5.90;1.00
37530;DHT22;23374;52.758;6.872;2024-02-23T08:02:41;6.00;1.00
37530;DHT22;23374;52.758;6.872;2024-02-23T08:05:01;6.00;1.00
37530;DHT22;23374;52.758;6.872;2024-02-23T08:07:22;6.00;1.00
37530;DHT22;23374;52.758;6.872;2024-02-23T08:09:43;6.10;1.00
37530;DHT22;23374;52.758;6.872;2024-02-23T08:12:04;6.10;1.00
37530;DHT22;23374;52.758;6.872;2024-02-23T08:14:24;6.10;1.00
37530;DHT22;23374;52.758;6.872;2024-02-23T08:16:45;6.10;1.00
37530;DHT22;23374;52.758;6.872;2024-02-23T08:19:05;6.20;99.90
37530;DHT22;23374;52.758;6.872;2024-02-23T08:21:26;6.20;99.90
37530;DHT22;23374;52.758;6.872;2024-02-23T08:23:46;6.20;99.90
37530;DHT22;23374;52.758;6.872;2024-02-23T08:26:06;6.30;99.90
37530;DHT22;23374;52.758;6.872;2024-02-23T08:28:27;6.30;99.90
37530;DHT22;23374;52.758;6.872;2024-02-23T08:30:47;6.40;99.90
37530;DHT22;23374;52.758;6.872;2024-02-23T08:33:07;6.40;99.90
37530;DHT22;23374;52.758;6.872;2024-02-23T08:35:30;6.40;99.90
37530;DHT22;23374;52.758;6.872;2024-02-23T08:37:51;6.50;99.90
37530;DHT22;23374;52.758;6.872;2024-02-23T08:40:11;6.50;90.40
37530;DHT22;23374;52.758;6.872;2024-02-23T08:42:32;6.60;99.90
37530;DHT22;23374;52.758;6.872;2024-02-23T08:44:52;6.60;69.90
37530;DHT22;23374;52.758;6.872;2024-02-23T08:47:14;6.70;1.00
37530;DHT22;23374;52.758;6.872;2024-02-23T08:49:35;6.70;60.30
37530;DHT22;23374;52.758;6.872;2024-02-23T08:51:56;6.70;1.00
37530;DHT22;23374;52.758;6.872;2024-02-23T08:54:18;6.80;1.00
37530;DHT22;23374;52.758;6.872;2024-02-23T08:56:39;6.80;1.00
37530;DHT22;23374;52.758;6.872;2024-02-23T08:59:02;6.90;1.00
37530;DHT22;23374;52.758;6.872;2024-02-23T09:01:22;6.90;1.00
37530;DHT22;23374;52.758;6.872;2024-02-23T09:03:43;7.00;1.00
37530;DHT22;23374;52.758;6.872;2024-02-23T09:06:04;7.10;1.00
37530;DHT22;23374;52.758;6.872;2024-02-23T09:08:24;7.10;1.00
37530;DHT22;23374;52.758;6.872;2024-02-23T09:10:45;7.20;1.00
37530;DHT22;23374;52.758;6.872;2024-02-23T09:13:05;7.10;1.00
37530;DHT22;23374;52.758;6.872;2024-02-23T09:15:25;7.20;1.00
37530;DHT22;23374;52.758;6.872;2024-02-23T09:17:46;7.20;1.00
37530;DHT22;23374;52.758;6.872;2024-02-23T09:20:07;7.20;1.00
37530;DHT22;23374;52.758;6.872;2024-02-23T09:22:28;7.20;1.00
37530;DHT22;23374;52.758;6.872;2024-02-23T09:24:48;7.20;99.90
37530;DHT22;23374;52.758;6.872;2024-02-23T09:27:08;7.20;99.90
37530;DHT22;23374;52.758;6.872;2024-02-23T09:29:29;7.20;1.00
37530;DHT22;23374;52.758;6.872;2024-02-23T09:31:49;7.20;1.00
37530;DHT22;23374;52.758;6.872;2024-02-23T09:34:10;7.20;1.00
37530;DHT22;23374;52.758;6.872;2024-02-23T09:36:31;7.20;99.90
37530;DHT22;23374;52.758;6.872;2024-02-23T09:38:51;7.20;99.90
37530;DHT22;23374;52.758;6.872;2024-02-23T09:41:23;7.20;99.90
37530;DHT22;23374;52.758;6.872;2024-02-23T09:43:44;7.20;99.90
37530;DHT22;23374;52.758;6.872;2024-02-23T09:46:06;7.20;99.90
37530;DHT22;23374;52.758;6.872;2024-02-23T09:48:28;7.30;99.90
37530;DHT22;23374;52.758;6.872;2024-02-23T09:50:50;7.30;99.90
37530;DHT22;23374;52.758;6.872;2024-02-23T09:53:13;7.30;99.90
37530;DHT22;23374;52.758;6.872;2024-02-23T09:55:34;7.40;1.00
37530;DHT22;23374;52.758;6.872;2024-02-23T09:57:57;7.40;1.00
37530;DHT22;23374;52.758;6.872;2024-02-23T10:00:19;7.50;99.90
37530;DHT22;23374;52.758;6.872;2024-02-23T10:02:39;7.50;99.90
37530;DHT22;23374;52.758;6.872;2024-02-23T10:05:01;7.50;99.90
37530;DHT22;23374;52.758;6.872;2024-02-23T10:07:23;7.50;99.90
37530;DHT22;23374;52.758;6.872;2024-02-23T10:09:45;7.50;99.90
37530;DHT22;23374;52.758;6.872;2024-02-23T10:12:07;7.50;99.90
37530;DHT22;23374;52.758;6.872;2024-02-23T10:14:28;7.60;99.90
37530;DHT22;23374;52.758;6.872;2024-02-23T10:16:48;7.60;99.90
37530;DHT22;23374;52.758;6.872;2024-02-23T10:19:14;7.60;99.90
37530;DHT22;23374;52.758;6.872;2024-02-23T10:21:34;7.60;99.90
37530;DHT22;23374;52.758;6.872;2024-02-23T10:23:55;7.60;99.90
37530;DHT22;23374;52.758;6.872;2024-02-23T10:26:15;7.60;99.90
37530;DHT22;23374;52.758;6.872;2024-02-23T10:28:40;7.60;99.90
37530;DHT22;23374;52.758;6.872;2024-02-23T10:31:00;7.60;99.90
37530;DHT22;23374;52.758;6.872;2024-02-23T10:33:23;7.60;99.90
37530;DHT22;23374;52.758;6.872;2024-02-23T10:35:47;7.60;99.90
37530;DHT22;23374;52.758;6.872;2024-02-23T10:38:08;7.60;99.90
37530;DHT22;23374;52.758;6.872;2024-02-23T10:40:32;7.70;99.90
37530;DHT22;23374;52.758;6.872;2024-02-23T10:42:57;7.60;99.90
37530;DHT22;23374;52.758;6.872;2024-02-23T10:45:22;7.60;99.90
37530;DHT22;23374;52.758;6.872;2024-02-23T10:47:43;7.60;99.90
37530;DHT22;23374;52.758;6.872;2024-02-23T10:50:05;7.60;99.90
37530;DHT22;23374;52.758;6.872;2024-02-23T10:52:26;7.70;99.90
37530;DHT22;23374;52.758;6.872;2024-02-23T10:54:48;7.70;99.90
37530;DHT22;23374;52.758;6.872;2024-02-23T10:57:09;7.70;99.90
37530;DHT22;23374;52.758;6.872;2024-02-23T10:59:31;7.70;99.90
37530;DHT22;23374;52.758;6.872;2024-02-23T11:01:53;7.70;99.90
37530;DHT22;23374;52.758;6.872;2024-02-23T11:04:16;7.70;99.90
37530;DHT22;23374;52.758;6.872;2024-02-23T11:06:37;7.70;99.90
37530;DHT22;23374;52.758;6.872;2024-02-23T11:09:07;7.70;99.90
37530;DHT22;23374;52.758;6.872;2024-02-23T11:11:32;7.70;99.90
37530;DHT22;23374;52.758;6.872;2024-02-23T11:13:56;7.60;99.90
37530;DHT22;23374;52.758;6.872;2024-02-23T11:16:23;7.70;99.90
37530;DHT22;23374;52.758;6.872;2024-02-23T11:18:46;7.70;99.90
37530;DHT22;23374;52.758;6.872;2024-02-23T11:21:09;7.70;1.00
37530;DHT22;23374;52.758;6.872;2024-02-23T11:23:48;7.70;99.90
37530;DHT22;23374;52.758;6.872;2024-02-23T11:26:13;7.70;99.90
37530;DHT22;23374;52.758;6.872;2024-02-23T11:28:33;7.70;1.00
37530;DHT22;23374;52.758;6.872;2024-02-23T11:30:54;7.70;1.00
37530;DHT22;23374;52.758;6.872;2024-02-23T11:33:14;7.70;1.00
37530;DHT22;23374;52.758;6.872;2024-02-23T11:35:34;7.60;1.00
37530;DHT22;23374;52.758;6.872;2024-02-23T11:37:57;7.60;1.00
37530;DHT22;23374;52.758;6.872;2024-02-23T11:40:22;7.60;1.00
37530;DHT22;23374;52.758;6.872;2024-02-23T11:42:42;7.60;99.90
37530;DHT22;23374;52.758;6.872;2024-02-23T11:45:06;7.50;99.90
37530;DHT22;23374;52.758;6.872;2024-02-23T11:47:27;7.50;99.90
37530;DHT22;23374;52.758;6.872;2024-02-23T11:49:47;7.40;99.90
37530;DHT22;23374;52.758;6.872;2024-02-23T11:52:10;7.30;99.90
37530;DHT22;23374;52.758;6.872;2024-02-23T11:54:31;7.10;1.00
37530;DHT22;23374;52.758;6.872;2024-02-23T11:56:52;7.10;99.90
37530;DHT22;23374;52.758;6.872;2024-02-23T11:59:13;7.00;99.90
37530;DHT22;23374;52.758;6.872;2024-02-23T12:01:33;6.90;89.20
37530;DHT22;23374;52.758;6.872;2024-02-23T12:03:55;6.80;99.90
37530;DHT22;23374;52.758;6.872;2024-02-23T12:06:15;6.70;1.00
37530;DHT22;23374;52.758;6.872;2024-02-23T12:08:37;6.70;1.00
37530;DHT22;23374;52.758;6.872;2024-02-23T12:10:58;6.60;1.00
37530;DHT22;23374;52.758;6.872;2024-02-23T12:13:20;6.60;16.10
37530;DHT22;23374;52.758;6.872;2024-02-23T12:15:40;6.60;99.90
37530;DHT22;23374;52.758;6.872;2024-02-23T12:18:00;6.50;99.90
37530;DHT22;23374;52.758;6.872;2024-02-23T12:20:23;6.50;99.90
37530;DHT22;23374;52.758;6.872;2024-02-23T12:22:44;6.60;99.90
37530;DHT22;23374;52.758;6.872;2024-02-23T12:25:06;6.60;99.90
37530;DHT22;23374;52.758;6.872;2024-02-23T12:27:27;6.60;99.90
37530;DHT22;23374;52.758;6.872;2024-02-23T12:29:53;6.60;99.90
37530;DHT22;23374;52.758;6.872;2024-02-23T12:32:14;6.60;1.00
37530;DHT22;23374;52.758;6.872;2024-02-23T12:34:34;6.60;99.90
37530;DHT22;23374;52.758;6.872;2024-02-23T12:36:55;6.60;99.90
37530;DHT22;23374;52.758;6.872;2024-02-23T12:39:15;6.60;99.90
37530;DHT22;23374;52.758;6.872;2024-02-23T12:41:36;6.60;99.90
37530;DHT22;23374;52.758;6.872;2024-02-23T12:43:56;6.60;99.90
37530;DHT22;23374;52.758;6.872;2024-02-23T12:46:17;6.60;99.90
37530;DHT22;23374;52.758;6.872;2024-02-23T12:48:38;6.60;99.90
37530;DHT22;23374;52.758;6.872;2024-02-23T12:50:58;6.60;99.90
37530;DHT22;23374;52.758;6.872;2024-02-23T12:53:39;6.60;99.90
37530;DHT22;23374;52.758;6.872;2024-02-23T12:56:08;6.60;99.90
37530;DHT22;23374;52.758;6.872;2024-02-23T12:58:28;6.60;99.90
37530;DHT22;23374;52.758;6.872;2024-02-23T13:00:49;6.60;85.10
37530;DHT22;23374;52.758;6.872;2024-02-23T13:03:09;6.60;1.00
37530;DHT22;23374;52.758;6.872;2024-02-23T13:05:29;6.70;1.00
37530;DHT22;23374;52.758;6.872;2024-02-23T13:07:50;6.70;1.00
37530;DHT22;23374;52.758;6.872;2024-02-23T13:10:10;6.80;1.00
37530;DHT22;23374;52.758;6.872;2024-02-23T13:12:30;6.80;1.00
37530;DHT22;23374;52.758;6.872;2024-02-23T13:14:53;6.80;1.00
37530;DHT22;23374;52.758;6.872;2024-02-23T13:17:14;6.80;1.00
37530;DHT22;23374;52.758;6.872;2024-02-23T13:19:34;6.80;1.00
37530;DHT22;23374;52.758;6.872;2024-02-23T13:21:54;6.90;1.00
37530;DHT22;23374;52.758;6.872;2024-02-23T13:24:15;6.90;1.00
37530;DHT22;23374;52.758;6.872;2024-02-23T13:26:36;6.90;1.00
37530;DHT22;23374;52.758;6.872;2024-02-23T13:28:56;6.90;1.00
37530;DHT22;23374;52.758;6.872;2024-02-23T13:31:16;6.90;1.00
37530;DHT22;23374;52.758;6.872;2024-02-23T13:33:37;6.90;1.00
37530;DHT22;23374;52.758;6.872;2024-02-23T13:35:58;6.90;1.00
37530;DHT22;23374;52.758;6.872;2024-02-23T13:38:18;6.90;1.00
37530;DHT22;23374;52.758;6.872;2024-02-23T13:40:39;6.90;1.00
37530;DHT22;23374;52.758;6.872;2024-02-23T13:42:59;7.00;1.00
37530;DHT22;23374;52.758;6.872;2024-02-23T13:45:20;7.00;1.00
37530;DHT22;23374;52.758;6.872;2024-02-23T13:47:55;7.00;1.00
37530;DHT22;23374;52.758;6.872;2024-02-23T13:50:16;7.00;1.00
37530;DHT22;23374;52.758;6.872;2024-02-23T13:52:37;7.10;1.00
37530;DHT22;23374;52.758;6.872;2024-02-23T13:54:57;7.10;1.00
37530;DHT22;23374;52.758;6.872;2024-02-23T13:57:17;7.20;1.00
37530;DHT22;23374;52.758;6.872;2024-02-23T13:59:38;7.20;1.00
37530;DHT22;23374;52.758;6.872;2024-02-23T14:02:01;7.20;1.00
37530;DHT22;23374;52.758;6.872;2024-02-23T14:04:21;7.20;1.00
37530;DHT22;23374;52.758;6.872;2024-02-23T14:06:42;7.20;1.00
37530;DHT22;23374;52.758;6.872;2024-02-23T14:09:03;7.30;1.00
37530;DHT22;23374;52.758;6.872;2024-02-23T14:11:23;7.30;99.90
37530;DHT22;23374;52.758;6.872;2024-02-23T14:13:44;7.30;99.90
37530;DHT22;23374;52.758;6.872;2024-02-23T14:16:05;7.30;99.90
37530;DHT22;23374;52.758;6.872;2024-02-23T14:18:25;7.40;99.90
37530;DHT22;23374;52.758;6.872;2024-02-23T14:20:46;7.40;32.30
37530;DHT22;23374;52.758;6.872;2024-02-23T14:23:06;7.40;1.00
37530;DHT22;23374;52.758;6.872;2024-02-23T14:25:26;7.50;1.00
37530;DHT22;23374;52.758;6.872;2024-02-23T14:27:47;7.50;1.00
37530;DHT22;23374;52.758;6.872;2024-02-23T14:30:09;7.50;1.00
37530;DHT22;23374;52.758;6.872;2024-02-23T14:32:29;7.50;1.00
37530;DHT22;23374;52.758;6.872;2024-02-23T14:34:51;7.50;1.00
37530;DHT22;23374;52.758;6.872;2024-02-23T14:37:11;7.50;1.00
37530;DHT22;23374;52.758;6.872;2024-02-23T14:39:32;7.50;63.00
37530;DHT22;23374;52.758;6.872;2024-02-23T14:41:53;7.60;99.90
37530;DHT22;23374;52.758;6.872;2024-02-23T14:44:14;7.60;99.90
37530;DHT22;23374;52.758;6.872;2024-02-23T14:46:34;7.60;99.90
37530;DHT22;23374;52.758;6.872;2024-02-23T14:48:55;7.60;99.90
37530;DHT22;23374;52.758;6.872;2024-02-23T14:51:16;7.60;99.90
37530;DHT22;23374;52.758;6.872;2024-02-23T14:53:37;7.60;99.90
37530;DHT22;23374;52.758;6.872;2024-02-23T14:55:57;7.60;99.90
37530;DHT22;23374;52.758;6.872;2024-02-23T14:58:18;7.60;99.90
37530;DHT22;23374;52.758;6.872;2024-02-23T15:00:38;7.60;99.90
37530;DHT22;23374;52.758;6.872;2024-02-23T15:02:59;7.60;99.90
37530;DHT22;23374;52.758;6.872;2024-02-23T15:05:20;7.60;37.20
37530;DHT22;23374;52.758;6.872;2024-02-23T15:07:40;7.60;99.90
37530;DHT22;23374;52.758;6.872;2024-02-23T15:10:02;7.60;99.90
37530;DHT22;23374;52.758;6.872;2024-02-23T15:12:28;7.60;99.90